Time;durP1;ratioP1;P1;durP2;ratioP2;P2;SDS_P1;SDS_P2;PMS_P1;PMS_P2;Temp;Humidity;BMP_temperature;BMP_pressure;BME280_temperature;BME280_humidity;BME280_pressure;Samples;Min_cycle;Max_cycle;Signal;HPM_P1;HPM_P2
2023/01/23 00:01:47;;;;;;;0.70;0.70;;;3.10;99.90;;;;;;5040978;27;20247;-90
2023/01/23 00:04:15;;;;;;;0.70;0.70;;;3.30;99.90;;;;;;5038299;27;20046;-91
2023/01/23 00:06:43;;;;;;;0.70;0.70;;;3.20;99.90;;;;;;5021397;27;20135;-91
2023/01/23 00:09:19;;;;;;;0.70;0.70;;;3.20;99.90;;;;;;5039032;27;20061;-91
2023/01/23 00:11:48;;;;;;;0.70;0.70;;;3.30;99.90;;;;;;5039400;27;20031;-91
2023/01/23 00:14:14;;;;;;;0.70;0.70;;;3.10;99.90;;;;;;5032610;27;20469;-91
2023/01/23 00:16:40;;;;;;;0.80;0.80;;;3.10;99.90;;;;;;5049430;27;20047;-90
2023/01/23 00:19:05;;;;;;;0.70;0.70;;;3.20;99.90;;;;;;5010260;27;20046;-91
2023/01/23 00:21:34;;;;;;;0.70;0.70;;;3.10;99.90;;;;;;5006141;27;20035;-91
2023/01/23 00:24:00;;;;;;;0.70;0.70;;;3.10;99.90;;;;;;5022984;27;20043;-91
2023/01/23 00:26:33;;;;;;;0.70;0.70;;;3.30;99.90;;;;;;5036683;27;20083;-91
2023/01/23 00:28:59;;;;;;;0.80;0.80;;;3.30;99.90;;;;;;5046326;27;20360;-91
2023/01/23 00:31:28;;;;;;;0.73;0.73;;;3.30;99.90;;;;;;5034253;27;20342;-90
2023/01/23 00:34:08;;;;;;;0.70;0.70;;;3.30;99.90;;;;;;5035563;27;20186;-91
2023/01/23 00:36:39;;;;;;;0.70;0.70;;;3.20;99.90;;;;;;5037591;27;20348;-91
2023/01/23 00:39:16;;;;;;;0.70;0.70;;;3.30;99.90;;;;;;5033063;27;20039;-91
2023/01/23 00:41:48;;;;;;;0.70;0.70;;;3.30;99.90;;;;;;5046669;27;20103;-91
2023/01/23 00:44:15;;;;;;;0.70;0.70;;;3.10;99.90;;;;;;5034071;27;20403;-90
2023/01/23 00:46:41;;;;;;;0.80;0.80;;;3.30;99.90;;;;;;5053626;27;20582;-90
2023/01/23 00:49:10;;;;;;;0.70;0.70;;;3.30;99.90;;;;;;5033806;27;20043;-91
2023/01/23 00:51:39;;;;;;;0.80;0.80;;;3.20;99.90;;;;;;5038366;27;20363;-89
2023/01/23 00:54:05;;;;;;;0.70;0.70;;;3.20;99.90;;;;;;5035754;27;20063;-91
2023/01/23 00:56:33;;;;;;;0.70;0.70;;;3.30;99.90;;;;;;5034923;27;20293;-90
2023/01/23 00:59:02;;;;;;;0.70;0.70;;;3.20;99.90;;;;;;5033353;27;20131;-91
2023/01/23 01:01:34;;;;;;;0.70;0.70;;;3.30;99.90;;;;;;5031798;27;20476;-91
2023/01/23 01:04:03;;;;;;;0.70;0.70;;;3.30;99.90;;;;;;5034387;27;20075;-92
2023/01/23 01:06:29;;;;;;;0.70;0.70;;;3.20;99.90;;;;;;5041780;27;20351;-91
2023/01/23 01:09:02;;;;;;;0.80;0.80;;;3.30;99.90;;;;;;5018334;27;20404;-91
2023/01/23 01:11:31;;;;;;;0.70;0.70;;;3.30;99.90;;;;;;5038324;28;20046;-91
2023/01/23 01:14:00;;;;;;;0.70;0.70;;;3.30;99.90;;;;;;5022968;27;20449;-91
2023/01/23 01:16:26;;;;;;;0.70;0.70;;;3.30;99.90;;;;;;5020031;27;20515;-91
2023/01/23 01:18:52;;;;;;;0.70;0.70;;;3.50;99.90;;;;;;5020837;28;20047;-91
2023/01/23 01:21:25;;;;;;;0.70;0.70;;;3.40;99.90;;;;;;5032210;28;20053;-91
2023/01/23 01:23:51;;;;;;;0.80;0.80;;;3.40;99.90;;;;;;5036169;27;20054;-90
2023/01/23 01:26:17;;;;;;;0.70;0.70;;;3.50;99.90;;;;;;5033201;27;20043;-91
2023/01/23 01:28:46;;;;;;;0.70;0.70;;;3.50;99.90;;;;;;5033203;27;21081;-90
2023/01/23 01:31:14;;;;;;;0.70;0.70;;;3.30;99.90;;;;;;5015878;27;20050;-90
2023/01/23 01:33:44;;;;;;;0.70;0.70;;;3.50;99.90;;;;;;5026400;27;20147;-91
2023/01/23 01:36:16;;;;;;;0.70;0.70;;;3.60;99.90;;;;;;5038630;28;20898;-90
2023/01/23 01:38:43;;;;;;;0.80;0.80;;;3.50;99.90;;;;;;5042447;28;20204;-88
2023/01/23 01:41:13;;;;;;;0.70;0.70;;;3.40;99.90;;;;;;5029004;27;20293;-90
2023/01/23 01:43:39;;;;;;;0.70;0.70;;;3.40;99.90;;;;;;5015317;28;20055;-90
2023/01/23 01:46:18;;;;;;;0.70;0.70;;;3.40;99.90;;;;;;5005070;28;20426;-90
2023/01/23 01:49:02;;;;;;;0.70;0.70;;;3.30;99.90;;;;;;5018454;28;20439;-90
2023/01/23 01:51:55;;;;;;;0.70;0.70;;;3.20;99.90;;;;;;5022601;28;20047;-90
2023/01/23 01:54:30;;;;;;;0.70;0.70;;;3.20;99.90;;;;;;5015575;28;20574;-91
2023/01/23 01:57:33;;;;;;;0.70;0.70;;;3.50;99.90;;;;;;5020171;28;20508;-91
2023/01/23 02:00:15;;;;;;;0.70;0.70;;;3.30;99.90;;;;;;5019326;28;20043;-90
2023/01/23 02:03:00;;;;;;;0.70;0.70;;;3.30;99.90;;;;;;5017915;28;20047;-90
2023/01/23 02:05:31;;;;;;;0.70;0.70;;;3.30;99.90;;;;;;5027021;27;20197;-90
2023/01/23 02:08:26;;;;;;;0.70;0.70;;;3.30;99.90;;;;;;5022938;27;20051;-90
2023/01/23 02:10:55;;;;;;;0.70;0.70;;;3.30;99.90;;;;;;5030539;27;20950;-90
2023/01/23 02:13:34;;;;;;;0.70;0.70;;;3.40;99.90;;;;;;5037807;27;20100;-90
2023/01/23 02:16:23;;;;;;;0.73;0.73;;;3.20;99.90;;;;;;5025406;27;20039;-90
2023/01/23 02:18:53;;;;;;;0.80;0.80;;;3.10;99.90;;;;;;5025204;27;20138;-90
2023/01/23 02:21:24;;;;;;;0.70;0.70;;;3.30;99.90;;;;;;5027337;27;20051;-90
2023/01/23 02:24:21;;;;;;;0.70;0.70;;;3.40;99.90;;;;;;5040015;27;20051;-91
2023/01/23 02:26:50;;;;;;;0.70;0.70;;;3.20;99.90;;;;;;5016911;27;20058;-89
2023/01/23 02:29:18;;;;;;;0.70;0.70;;;3.30;99.90;;;;;;5020266;27;20050;-90
2023/01/23 02:31:44;;;;;;;0.70;0.70;;;3.30;99.90;;;;;;5013100;27;20095;-90
2023/01/23 02:34:15;;;;;;;0.75;0.75;;;3.30;99.90;;;;;;5052031;27;20119;-90
2023/01/23 02:36:45;;;;;;;0.70;0.70;;;3.30;99.90;;;;;;5009426;27;20058;-90
2023/01/23 02:39:14;;;;;;;0.70;0.70;;;3.30;99.90;;;;;;5021161;27;20047;-90
2023/01/23 02:41:45;;;;;;;0.77;0.77;;;3.20;99.90;;;;;;5017783;27;20832;-90
2023/01/23 02:44:24;;;;;;;0.70;0.70;;;3.30;99.90;;;;;;5058075;27;20047;-88
2023/01/23 02:46:50;;;;;;;0.80;0.80;;;3.20;99.90;;;;;;5033608;27;20371;-91
2023/01/23 02:49:16;;;;;;;0.70;0.70;;;3.20;99.90;;;;;;5025991;27;20370;-89
2023/01/23 02:51:44;;;;;;;0.70;0.70;;;3.30;99.90;;;;;;5052195;27;20108;-90
2023/01/23 02:54:10;;;;;;;0.70;0.70;;;3.20;99.90;;;;;;5036372;27;20300;-90
2023/01/23 02:56:51;;;;;;;0.70;0.70;;;3.20;99.90;;;;;;5037731;27;20042;-90
2023/01/23 03:02:01;;;;;;;0.70;0.70;;;3.30;99.90;;;;;;5042357;27;20527;-90
2023/01/23 03:04:29;;;;;;;0.80;0.80;;;3.20;99.90;;;;;;5008508;27;20104;-89
2023/01/23 03:06:55;;;;;;;0.70;0.70;;;3.30;99.90;;;;;;5035816;27;20042;-91
2023/01/23 03:09:21;;;;;;;0.70;0.70;;;3.30;99.90;;;;;;5028198;27;20765;-90
2023/01/23 03:11:51;;;;;;;0.70;0.70;;;3.20;99.90;;;;;;5038278;27;21009;-90
2023/01/23 03:14:21;;;;;;;0.70;0.70;;;3.20;99.90;;;;;;5050950;27;20058;-91
2023/01/23 03:16:57;;;;;;;0.70;0.70;;;3.30;99.90;;;;;;5044459;27;20748;-89
2023/01/23 03:19:26;;;;;;;0.70;0.70;;;3.20;99.90;;;;;;5054353;27;20047;-91
2023/01/23 03:21:54;;;;;;;0.70;0.70;;;3.20;99.90;;;;;;5025334;27;20050;-90
2023/01/23 03:24:20;;;;;;;0.70;0.70;;;3.30;99.90;;;;;;5036591;27;20534;-90
2023/01/23 03:26:49;;;;;;;0.70;0.70;;;3.30;99.90;;;;;;5021290;27;20637;-90
2023/01/23 03:32:09;;;;;;;0.70;0.70;;;3.20;99.90;;;;;;5051207;27;20050;-90
2023/01/23 03:34:35;;;;;;;0.70;0.70;;;3.40;99.90;;;;;;5038757;27;20383;-90
2023/01/23 03:37:02;;;;;;;0.70;0.70;;;3.40;99.90;;;;;;5035050;27;20039;-90
2023/01/23 03:42:16;;;;;;;0.80;0.80;;;3.30;99.90;;;;;;5044429;27;20047;-90
2023/01/23 03:44:42;;;;;;;0.80;0.80;;;3.30;99.90;;;;;;5029848;27;20115;-90
2023/01/23 03:47:08;;;;;;;0.73;0.73;;;3.40;99.90;;;;;;5031865;27;20047;-90
2023/01/23 03:49:33;;;;;;;0.70;0.70;;;3.40;99.90;;;;;;5027777;27;20654;-89
2023/01/23 03:52:02;;;;;;;0.70;0.70;;;3.40;99.90;;;;;;5033845;27;20841;-90
2023/01/23 03:54:31;;;;;;;0.70;0.70;;;3.30;99.90;;;;;;5029582;27;20039;-89
2023/01/23 03:56:57;;;;;;;0.70;0.70;;;3.40;99.90;;;;;;5026054;27;20897;-89
2023/01/23 03:59:23;;;;;;;0.70;0.70;;;3.40;99.90;;;;;;5028575;27;20046;-90
2023/01/23 04:01:51;;;;;;;0.80;0.80;;;3.40;99.90;;;;;;5040478;27;20151;-90
2023/01/23 04:04:17;;;;;;;0.70;0.70;;;3.40;99.90;;;;;;5033452;27;20054;-90
2023/01/23 04:06:50;;;;;;;0.70;0.70;;;3.40;99.90;;;;;;5020684;27;20058;-90
2023/01/23 04:09:19;;;;;;;0.70;0.70;;;3.30;99.90;;;;;;5048638;27;20353;-90
2023/01/23 04:11:47;;;;;;;0.70;0.70;;;3.40;99.90;;;;;;5033123;27;20589;-90
2023/01/23 04:14:19;;;;;;;0.80;0.80;;;3.50;99.90;;;;;;5020693;27;20046;-90
2023/01/23 04:16:48;;;;;;;0.70;0.70;;;3.30;99.90;;;;;;5044826;27;20049;-89
2023/01/23 04:19:14;;;;;;;0.70;0.70;;;3.40;99.90;;;;;;5037155;27;20397;-91
2023/01/23 04:21:49;;;;;;;0.80;0.80;;;3.20;99.90;;;;;;5054958;27;20518;-90
2023/01/23 04:24:16;;;;;;;0.70;0.70;;;3.20;99.90;;;;;;5037197;27;20051;-90
2023/01/23 04:26:45;;;;;;;0.70;0.70;;;3.20;99.90;;;;;;5043736;27;20391;-88
2023/01/23 04:29:11;;;;;;;0.70;0.70;;;3.40;99.90;;;;;;5036839;27;20075;-90
2023/01/23 04:31:37;;;;;;;0.70;0.70;;;3.30;99.90;;;;;;5039746;27;20043;-89
2023/01/23 04:34:03;;;;;;;0.70;0.70;;;3.30;99.90;;;;;;5062952;27;20106;-90
2023/01/23 04:36:29;;;;;;;0.70;0.70;;;3.20;99.90;;;;;;5031172;27;20400;-89
2023/01/23 04:39:01;;;;;;;0.80;0.80;;;3.30;99.90;;;;;;5059692;27;20046;-90
2023/01/23 04:41:29;;;;;;;0.70;0.70;;;3.30;99.90;;;;;;5052427;27;20053;-90
2023/01/23 04:44:18;;;;;;;0.70;0.70;;;3.30;99.90;;;;;;5030971;27;20840;-89
2023/01/23 04:46:52;;;;;;;0.70;0.70;;;3.20;99.90;;;;;;5032685;27;20079;-90
2023/01/23 04:49:20;;;;;;;0.70;0.70;;;3.30;99.90;;;;;;5032617;27;20366;-90
2023/01/23 04:51:49;;;;;;;0.70;0.70;;;3.30;99.90;;;;;;5029782;27;20812;-88
2023/01/23 04:54:19;;;;;;;0.70;0.70;;;3.20;99.90;;;;;;5029897;27;20154;-89
2023/01/23 04:56:48;;;;;;;0.70;0.70;;;3.30;99.90;;;;;;5037175;27;20162;-89
2023/01/23 04:59:19;;;;;;;0.70;0.70;;;3.30;99.90;;;;;;5034476;27;20043;-89
2023/01/23 05:01:46;;;;;;;0.70;0.70;;;3.30;99.90;;;;;;5037223;27;20047;-90
2023/01/23 05:04:12;;;;;;;0.70;0.70;;;3.30;99.90;;;;;;5021790;27;20103;-90
2023/01/23 05:06:38;;;;;;;0.70;0.70;;;3.40;99.90;;;;;;5028542;27;20979;-90
2023/01/23 05:09:06;;;;;;;0.70;0.70;;;3.20;99.90;;;;;;5024333;27;20047;-90
2023/01/23 05:11:32;;;;;;;0.70;0.70;;;3.40;99.90;;;;;;5027066;27;20078;-90
2023/01/23 05:13:58;;;;;;;0.70;0.70;;;3.30;99.90;;;;;;5036059;27;20129;-90
2023/01/23 05:16:24;;;;;;;0.70;0.70;;;3.20;99.90;;;;;;5023881;27;20070;-91
2023/01/23 05:18:50;;;;;;;0.80;0.80;;;3.30;99.90;;;;;;5025656;27;20503;-89
2023/01/23 05:21:16;;;;;;;0.70;0.70;;;3.30;99.90;;;;;;5014555;27;20051;-90
2023/01/23 05:23:42;;;;;;;0.70;0.70;;;3.20;99.90;;;;;;5037817;27;21000;-91
2023/01/23 05:26:10;;;;;;;0.70;0.70;;;3.20;99.90;;;;;;5025323;27;20043;-90
2023/01/23 05:28:36;;;;;;;0.73;0.73;;;3.20;99.90;;;;;;5042292;27;20184;-90
2023/01/23 05:31:07;;;;;;;0.70;0.70;;;3.20;99.90;;;;;;5037297;27;20481;-90
2023/01/23 05:33:33;;;;;;;0.70;0.70;;;3.20;99.90;;;;;;5039698;28;20041;-89
2023/01/23 05:36:00;;;;;;;0.70;0.70;;;3.20;99.90;;;;;;5040391;27;20808;-89
2023/01/23 05:38:26;;;;;;;0.70;0.70;;;3.10;99.90;;;;;;5039396;28;20035;-90
2023/01/23 05:40:52;;;;;;;0.70;0.70;;;3.30;99.90;;;;;;5032035;27;20879;-90
2023/01/23 05:43:21;;;;;;;0.73;0.73;;;3.30;99.90;;;;;;5049053;28;20091;-91
2023/01/23 05:45:50;;;;;;;0.80;0.80;;;3.10;99.90;;;;;;5043758;28;20082;-89
2023/01/23 05:48:16;;;;;;;0.70;0.70;;;3.30;99.90;;;;;;5031073;28;20047;-89
2023/01/23 05:50:44;;;;;;;0.75;0.75;;;3.20;99.90;;;;;;5025782;28;20066;-89
2023/01/23 05:53:10;;;;;;;0.80;0.80;;;3.30;99.90;;;;;;5024345;28;20600;-90
2023/01/23 05:55:42;;;;;;;0.75;0.75;;;3.40;99.90;;;;;;5039719;28;20184;-89
2023/01/23 05:58:11;;;;;;;0.77;0.77;;;3.20;99.90;;;;;;5043657;28;20628;-89
2023/01/23 06:00:37;;;;;;;0.80;0.80;;;3.30;99.90;;;;;;5034490;28;20047;-90
2023/01/23 06:03:03;;;;;;;0.70;0.70;;;3.30;99.90;;;;;;5031428;28;20082;-88
2023/01/23 06:05:29;;;;;;;0.80;0.80;;;3.20;99.90;;;;;;5030145;28;20043;-90
2023/01/23 06:07:57;;;;;;;0.75;0.75;;;3.30;99.90;;;;;;5027542;28;20134;-90
2023/01/23 06:10:26;;;;;;;0.70;0.70;;;3.20;99.90;;;;;;5034511;28;20057;-88
2023/01/23 06:12:51;;;;;;;0.70;0.70;;;3.20;99.90;;;;;;5029704;28;20040;-90
2023/01/23 06:15:17;;;;;;;0.70;0.70;;;3.20;99.90;;;;;;5038983;28;20365;-89
2023/01/23 06:17:43;;;;;;;0.73;0.73;;;3.20;99.90;;;;;;5024943;28;20047;-89
2023/01/23 06:20:11;;;;;;;0.70;0.70;;;3.20;99.90;;;;;;5048857;28;20050;-90
2023/01/23 06:22:36;;;;;;;0.80;0.80;;;3.10;99.90;;;;;;5035109;28;20127;-90
2023/01/23 06:25:05;;;;;;;0.80;0.80;;;3.10;99.90;;;;;;5054095;28;20855;-90
2023/01/23 06:27:33;;;;;;;0.70;0.70;;;3.10;99.90;;;;;;5032941;28;20554;-90
2023/01/23 06:29:59;;;;;;;0.70;0.70;;;3.10;99.90;;;;;;5046753;28;20066;-89
2023/01/23 06:32:28;;;;;;;0.70;0.70;;;3.10;99.90;;;;;;5015500;28;20047;-89
2023/01/23 06:35:01;;;;;;;0.70;0.70;;;3.30;99.90;;;;;;5025455;28;20053;-90
2023/01/23 06:37:27;;;;;;;0.80;0.80;;;3.20;99.90;;;;;;5036421;28;20463;-90
2023/01/23 06:39:55;;;;;;;0.70;0.70;;;3.10;99.90;;;;;;5026094;28;20502;-90
2023/01/23 06:42:21;;;;;;;0.70;0.70;;;3.20;99.90;;;;;;5031320;27;20121;-89
2023/01/23 06:44:47;;;;;;;0.70;0.70;;;3.30;99.90;;;;;;5043807;27;20085;-90
2023/01/23 06:47:16;;;;;;;0.70;0.70;;;3.10;99.90;;;;;;5009543;27;20574;-89
2023/01/23 06:49:41;;;;;;;0.70;0.70;;;3.00;99.90;;;;;;5042313;27;20139;-89
2023/01/23 06:52:08;;;;;;;0.70;0.70;;;3.10;99.90;;;;;;5047227;27;20149;-89
2023/01/23 06:54:33;;;;;;;0.70;0.70;;;3.20;99.90;;;;;;5045462;27;20892;-89
2023/01/23 06:56:59;;;;;;;0.70;0.70;;;3.30;99.90;;;;;;5039122;27;20050;-90
2023/01/23 06:59:25;;;;;;;0.73;0.73;;;3.20;99.90;;;;;;5040829;27;20070;-90
2023/01/23 07:01:51;;;;;;;0.70;0.70;;;3.20;99.90;;;;;;5045887;27;20524;-90
2023/01/23 07:04:23;;;;;;;0.80;0.80;;;3.20;99.90;;;;;;5049214;27;20047;-90
2023/01/23 07:06:52;;;;;;;0.80;0.80;;;3.30;99.90;;;;;;5070786;27;20047;-90
2023/01/23 07:09:18;;;;;;;0.70;0.70;;;3.10;99.90;;;;;;5034141;27;20045;-90
2023/01/23 07:11:44;;;;;;;0.70;0.70;;;3.20;99.90;;;;;;5037681;27;20435;-90
2023/01/23 07:14:09;;;;;;;0.70;0.70;;;3.30;99.90;;;;;;5039383;27;20408;-91
2023/01/23 07:16:35;;;;;;;0.80;0.80;;;3.30;99.90;;;;;;5060374;27;20035;-90
2023/01/23 07:19:02;;;;;;;0.70;0.70;;;3.20;99.90;;;;;;5035011;27;20143;-90
2023/01/23 07:21:28;;;;;;;0.73;0.73;;;3.20;99.90;;;;;;5049249;27;20988;-90
2023/01/23 07:23:54;;;;;;;0.70;0.70;;;3.20;99.90;;;;;;5062428;27;20057;-90
2023/01/23 07:26:20;;;;;;;0.70;0.70;;;3.10;99.90;;;;;;5045035;27;20042;-90
2023/01/23 07:28:46;;;;;;;0.70;0.70;;;3.10;99.90;;;;;;5043577;27;20043;-91
2023/01/23 07:31:12;;;;;;;0.70;0.70;;;3.20;99.90;;;;;;5050119;27;20043;-90
2023/01/23 07:33:38;;;;;;;0.70;0.70;;;3.30;99.90;;;;;;5038667;27;20077;-90
2023/01/23 07:36:07;;;;;;;0.73;0.73;;;3.10;99.90;;;;;;5042178;27;20516;-90
2023/01/23 07:38:33;;;;;;;0.70;0.70;;;3.30;99.90;;;;;;5046707;27;20075;-90
2023/01/23 07:40:59;;;;;;;0.70;0.70;;;3.20;99.90;;;;;;5033122;27;20067;-90
2023/01/23 07:43:26;;;;;;;0.80;0.80;;;3.10;99.90;;;;;;5038603;27;20151;-89
2023/01/23 07:45:52;;;;;;;0.75;0.75;;;3.30;99.90;;;;;;5024555;27;20507;-88
2023/01/23 07:48:20;;;;;;;0.70;0.70;;;3.30;99.90;;;;;;5008860;27;20038;-89
2023/01/23 07:50:48;;;;;;;0.70;0.70;;;3.40;99.90;;;;;;5044378;27;20523;-90
2023/01/23 07:53:16;;;;;;;0.77;0.77;;;3.10;99.90;;;;;;5022637;27;20043;-89
2023/01/23 07:55:45;;;;;;;0.70;0.70;;;3.10;99.90;;;;;;5029264;27;20418;-90
2023/01/23 07:58:11;;;;;;;0.70;0.70;;;3.10;99.90;;;;;;5038127;27;20114;-90
2023/01/23 08:00:37;;;;;;;0.70;0.70;;;3.20;99.90;;;;;;5022709;27;20358;-89
2023/01/23 08:03:03;;;;;;;0.80;0.80;;;3.30;99.90;;;;;;5001043;27;20836;-89
2023/01/23 08:05:32;;;;;;;0.70;0.70;;;3.10;99.90;;;;;;5017453;27;20574;-90
2023/01/23 08:07:57;;;;;;;0.70;0.70;;;3.30;99.90;;;;;;5014630;27;20119;-90
2023/01/23 08:10:25;;;;;;;0.77;0.77;;;3.10;99.90;;;;;;5017542;27;20595;-90
2023/01/23 08:12:54;;;;;;;0.80;0.80;;;3.20;99.90;;;;;;5020464;27;20122;-90
2023/01/23 08:15:19;;;;;;;0.70;0.70;;;3.20;99.90;;;;;;5019627;27;20058;-90
2023/01/23 08:17:47;;;;;;;0.70;0.70;;;3.20;99.90;;;;;;5006826;27;20042;-90
2023/01/23 08:20:14;;;;;;;0.80;0.80;;;3.20;99.90;;;;;;5002562;27;20472;-90
2023/01/23 08:22:39;;;;;;;0.80;0.80;;;3.30;99.90;;;;;;5018974;27;20051;-90
2023/01/23 08:25:13;;;;;;;0.80;0.80;;;3.20;99.90;;;;;;5001834;27;20096;-90
2023/01/23 08:27:39;;;;;;;0.75;0.75;;;3.20;99.90;;;;;;5038516;27;20574;-90
2023/01/23 08:30:06;;;;;;;0.80;0.80;;;3.30;99.90;;;;;;5010523;27;20044;-90
2023/01/23 08:32:38;;;;;;;0.80;0.80;;;3.30;99.90;;;;;;5022957;27;20050;-90
2023/01/23 08:35:04;;;;;;;0.70;0.70;;;3.30;99.90;;;;;;5017733;27;20078;-90
2023/01/23 08:37:40;;;;;;;0.70;0.70;;;3.30;99.90;;;;;;5006147;27;20051;-90
2023/01/23 08:40:18;;;;;;;0.70;0.70;;;3.30;99.90;;;;;;5018020;27;20077;-90
2023/01/23 08:42:44;;;;;;;0.80;0.80;;;3.40;99.90;;;;;;4999019;27;20063;-90
2023/01/23 08:45:21;;;;;;;0.80;0.80;;;3.40;99.90;;;;;;5036656;27;20369;-90
2023/01/23 08:47:47;;;;;;;0.70;0.70;;;3.30;99.90;;;;;;5030832;27;20040;-90
2023/01/23 08:50:16;;;;;;;0.80;0.80;;;3.50;99.90;;;;;;5035842;28;20456;-89
2023/01/23 08:52:42;;;;;;;0.70;0.70;;;3.40;99.90;;;;;;5032638;27;20235;-90
2023/01/23 08:55:14;;;;;;;0.80;0.80;;;3.40;99.90;;;;;;5011790;27;20400;-89
2023/01/23 08:57:43;;;;;;;0.80;0.80;;;3.40;99.90;;;;;;5054486;27;20050;-89
2023/01/23 09:00:12;;;;;;;0.70;0.70;;;3.50;99.90;;;;;;5039389;27;20641;-90
2023/01/23 09:02:37;;;;;;;0.80;0.80;;;3.50;99.90;;;;;;5015827;27;20050;-90
2023/01/23 09:05:04;;;;;;;0.70;0.70;;;3.50;99.90;;;;;;5027024;27;20144;-90
2023/01/23 09:07:35;;;;;;;0.80;0.80;;;3.50;99.90;;;;;;5036845;27;20147;-90
2023/01/23 09:10:01;;;;;;;0.70;0.70;;;3.50;99.90;;;;;;5027146;27;20050;-91
2023/01/23 09:12:27;;;;;;;0.70;0.70;;;3.60;99.90;;;;;;5047799;27;20641;-90
2023/01/23 09:15:01;;;;;;;0.70;0.70;;;3.50;99.90;;;;;;5037514;28;20780;-90
2023/01/23 09:17:29;;;;;;;;;;;3.50;99.90;;;;;;5037367;27;20074;-90
2023/01/23 09:19:55;;;;;;;0.70;0.70;;;3.50;99.90;;;;;;5024750;27;19970;-88
2023/01/23 09:22:26;;;;;;;0.70;0.70;;;3.70;99.90;;;;;;5040741;27;20127;-89
2023/01/23 09:24:52;;;;;;;0.70;0.70;;;3.50;99.90;;;;;;5049792;27;20498;-89
2023/01/23 09:27:26;;;;;;;0.70;0.70;;;3.50;99.90;;;;;;5039297;27;20042;-89
2023/01/23 09:29:52;;;;;;;0.70;0.70;;;3.60;99.90;;;;;;5034878;27;20251;-89
2023/01/23 09:32:18;;;;;;;0.70;0.70;;;3.60;99.90;;;;;;5036100;28;20422;-90
2023/01/23 09:34:55;;;;;;;0.80;0.80;;;3.70;99.90;;;;;;5067638;27;20059;-88
2023/01/23 09:37:21;;;;;;;0.70;0.70;;;3.70;99.90;;;;;;5045145;27;20349;-90
2023/01/23 09:39:47;;;;;;;0.70;0.70;;;3.70;99.90;;;;;;5053723;27;20118;-90
2023/01/23 09:42:20;;;;;;;0.70;0.70;;;3.80;99.90;;;;;;5044072;27;20046;-90
2023/01/23 09:44:52;;;;;;;0.70;0.70;;;3.70;99.90;;;;;;5057528;27;20051;-91
2023/01/23 09:47:35;;;;;;;0.73;0.73;;;3.60;99.90;;;;;;5054197;27;20069;-90
2023/01/23 09:50:13;;;;;;;0.70;0.70;;;3.80;99.90;;;;;;5048607;27;20347;-90
2023/01/23 09:52:54;;;;;;;0.70;0.70;;;3.70;99.90;;;;;;5050853;27;20236;-90
2023/01/23 09:55:44;;;;;;;0.70;0.70;;;3.70;99.90;;;;;;5050974;27;20052;-91
2023/01/23 09:58:21;;;;;;;0.70;0.70;;;3.70;99.90;;;;;;5048903;27;20054;-90
2023/01/23 10:00:47;;;;;;;0.70;0.70;;;3.70;99.90;;;;;;5052110;27;20991;-90
2023/01/23 10:03:21;;;;;;;0.70;0.70;;;3.90;99.90;;;;;;5035515;27;20048;-90
2023/01/23 10:06:08;;;;;;;0.73;0.73;;;4.00;99.90;;;;;;5061706;27;20050;-92
2023/01/23 10:08:48;;;;;;;0.70;0.70;;;3.80;99.90;;;;;;5051875;27;20066;-89
2023/01/23 10:11:37;;;;;;;0.70;0.70;;;3.90;99.90;;;;;;5053257;27;20051;-89
2023/01/23 10:14:49;;;;;;;0.80;0.80;;;3.80;99.90;;;;;;5061165;27;20786;-91
2023/01/23 10:17:56;;;;;;;0.70;0.70;;;3.90;99.90;;;;;;5048637;27;20051;-89
2023/01/23 10:21:00;;;;;;;0.80;0.80;;;3.90;99.90;;;;;;4980399;27;20150;-90
2023/01/23 10:24:08;;;;;;;0.73;0.73;;;4.00;99.90;;;;;;5051352;27;20041;-89
2023/01/23 10:26:40;;;;;;;0.70;0.70;;;4.20;99.90;;;;;;5052955;27;20555;-89
2023/01/23 10:29:53;;;;;;;0.80;0.80;;;4.30;99.90;;;;;;5058268;27;20908;-89
2023/01/23 10:32:30;;;;;;;0.70;0.70;;;4.40;99.90;;;;;;4968647;28;20539;-89
2023/01/23 10:35:09;;;;;;;0.80;0.80;;;4.20;99.90;;;;;;4975571;28;20838;-90
2023/01/23 10:37:57;;;;;;;0.80;0.80;;;4.30;99.90;;;;;;4966769;28;20467;-90
2023/01/23 10:43:16;;;;;;;0.70;0.70;;;4.50;99.90;;;;;;4999865;27;20047;-89
2023/01/23 10:45:44;;;;;;;0.70;0.70;;;4.70;99.90;;;;;;5064937;27;20850;-89
2023/01/23 10:48:38;;;;;;;0.80;0.80;;;4.90;99.90;;;;;;5052250;27;20054;-89
2023/01/23 10:51:03;;;;;;;0.70;0.70;;;4.80;99.90;;;;;;5057058;27;20049;-88
2023/01/23 10:53:29;;;;;;;0.70;0.70;;;4.90;99.90;;;;;;5046199;27;20047;-88
2023/01/23 10:55:59;;;;;;;0.70;0.70;;;4.90;99.90;;;;;;5047353;27;20047;-89
2023/01/23 10:58:36;;;;;;;0.70;0.70;;;4.70;99.90;;;;;;5038453;27;20621;-89
2023/01/23 11:01:03;;;;;;;0.70;0.70;;;4.90;99.90;;;;;;5045261;27;20074;-90
2023/01/23 11:03:31;;;;;;;0.70;0.70;;;5.00;99.90;;;;;;5053832;27;20096;-87
2023/01/23 11:06:04;;;;;;;0.70;0.70;;;4.90;99.90;;;;;;5045648;27;20039;-89
2023/01/23 11:08:35;;;;;;;0.70;0.70;;;4.90;99.90;;;;;;5039790;27;20633;-88
2023/01/23 11:11:21;;;;;;;0.70;0.70;;;5.00;99.90;;;;;;5043179;27;20497;-87
2023/01/23 11:13:49;;;;;;;0.70;0.70;;;5.00;99.90;;;;;;5045316;27;20467;-88
2023/01/23 11:16:21;;;;;;;0.70;0.70;;;4.80;99.90;;;;;;5044300;27;20080;-89
2023/01/23 11:19:11;;;;;;;0.70;0.70;;;4.90;99.90;;;;;;5066329;27;20237;-89
2023/01/23 11:21:58;;;;;;;0.70;0.70;;;4.80;99.90;;;;;;5046299;27;20050;-89
2023/01/23 11:24:42;;;;;;;0.70;0.70;;;4.80;99.90;;;;;;5053899;27;20074;-91
2023/01/23 11:27:13;;;;;;;0.70;0.70;;;4.70;99.90;;;;;;5026298;27;20051;-89
2023/01/23 11:30:10;;;;;;;0.70;0.70;;;4.70;99.90;;;;;;5063448;27;20054;-89
2023/01/23 11:32:58;;;;;;;0.70;0.70;;;4.80;99.90;;;;;;5047817;27;20917;-90
2023/01/23 11:36:05;;;;;;;0.70;0.70;;;4.90;99.90;;;;;;5054937;27;20074;-89
2023/01/23 11:38:44;;;;;;;0.70;0.70;;;4.90;99.90;;;;;;5047476;27;20501;-88
2023/01/23 11:41:11;;;;;;;0.70;0.70;;;4.80;99.90;;;;;;5043120;27;20498;-89
2023/01/23 11:43:42;;;;;;;0.60;0.60;;;4.70;99.90;;;;;;5046622;27;20047;-89
2023/01/23 11:46:45;;;;;;;0.70;0.70;;;4.80;99.90;;;;;;5066140;27;20050;-89
2023/01/23 11:49:48;;;;;;;0.70;0.70;;;4.80;99.90;;;;;;5044111;27;20346;-89
2023/01/23 11:52:55;;;;;;;0.70;0.70;;;4.70;99.90;;;;;;5046269;27;20220;-88
2023/01/23 11:55:53;;;;;;;0.70;0.70;;;4.80;99.90;;;;;;5048784;27;20527;-90
2023/01/23 11:58:51;;;;;;;0.70;0.70;;;4.90;99.90;;;;;;5050887;27;20039;-89
2023/01/23 12:01:53;;;;;;;0.70;0.70;;;4.90;99.90;;;;;;5045848;27;20142;-89
2023/01/23 12:04:37;;;;;;;0.70;0.70;;;4.90;99.90;;;;;;4994453;28;20056;-90
2023/01/23 12:07:11;;;;;;;;;;;4.80;99.90;;;;;;5050424;27;20043;-91
2023/01/23 12:09:50;;;;;;;;;;;4.80;99.90;;;;;;5052220;27;19919;-89
2023/01/23 12:12:23;;;;;;;0.70;0.70;;;4.90;99.90;;;;;;5048148;27;20631;-90
2023/01/23 12:14:48;;;;;;;0.70;0.70;;;5.00;99.90;;;;;;5051690;27;20187;-91
2023/01/23 12:17:33;;;;;;;0.70;0.70;;;5.00;99.90;;;;;;5057904;27;20554;-89
2023/01/23 12:20:40;;;;;;;0.70;0.70;;;5.00;99.90;;;;;;5049111;27;20134;-89
2023/01/23 12:23:45;;;;;;;0.70;0.70;;;5.00;99.90;;;;;;4984223;28;20075;-90
2023/01/23 12:26:18;;;;;;;;;;;4.90;99.90;;;;;;5043139;27;20051;-88
2023/01/23 12:29:05;;;;;;;0.70;0.70;;;5.00;99.90;;;;;;5043616;27;19934;-88
2023/01/23 12:31:36;;;;;;;0.70;0.70;;;5.00;99.90;;;;;;5036431;27;20801;-88
2023/01/23 12:34:38;;;;;;;0.70;0.70;;;5.10;99.90;;;;;;5058010;27;20170;-88
2023/01/23 12:37:35;;;;;;;0.70;0.70;;;4.90;99.90;;;;;;5085016;27;20579;-89
2023/01/23 12:40:22;;;;;;;0.60;0.60;;;5.00;99.90;;;;;;5091659;27;20050;-89
2023/01/23 12:42:57;;;;;;;0.70;0.70;;;5.10;99.90;;;;;;5081994;27;20043;-87
2023/01/23 12:45:30;;;;;;;0.70;0.70;;;5.10;99.90;;;;;;5048036;27;20388;-90
2023/01/23 12:48:10;;;;;;;0.70;0.70;;;5.00;99.90;;;;;;5038392;27;20565;-89
2023/01/23 12:50:43;;;;;;;0.70;0.70;;;5.10;99.90;;;;;;5052603;27;20042;-92
2023/01/23 12:53:14;;;;;;;0.70;0.70;;;5.00;99.90;;;;;;5043560;27;20039;-91
2023/01/23 12:56:02;;;;;;;0.70;0.70;;;5.00;99.90;;;;;;5043701;27;20049;-91
2023/01/23 12:58:34;;;;;;;0.60;0.60;;;5.10;99.90;;;;;;5045723;27;20458;-90
2023/01/23 13:01:05;;;;;;;0.60;0.60;;;5.00;99.90;;;;;;5038852;27;20154;-90
2023/01/23 13:03:52;;;;;;;0.70;0.70;;;5.00;99.90;;;;;;5036023;27;20338;-90
2023/01/23 13:06:33;;;;;;;0.60;0.60;;;5.10;99.90;;;;;;5036108;27;20047;-90
2023/01/23 13:09:18;;;;;;;0.70;0.70;;;5.10;99.90;;;;;;5054754;27;20050;-88
2023/01/23 13:12:28;;;;;;;0.70;0.70;;;4.90;99.90;;;;;;5051973;27;20047;-90
2023/01/23 13:15:16;;;;;;;2.25;2.15;;;4.90;99.90;;;;;;5038699;27;20470;-90
2023/01/23 13:17:49;;;;;;;0.60;0.60;;;4.90;99.90;;;;;;5055701;27;20043;-89
2023/01/23 13:23:30;;;;;;;0.70;0.70;;;4.80;99.90;;;;;;5055393;27;20046;-89
2023/01/23 13:26:27;;;;;;;0.70;0.70;;;4.80;99.90;;;;;;5037621;27;20046;-90
2023/01/23 13:29:02;;;;;;;0.70;0.70;;;4.90;99.90;;;;;;5031957;27;20055;-90
2023/01/23 13:31:45;;;;;;;0.70;0.70;;;4.90;99.90;;;;;;5050452;27;21198;-88
2023/01/23 13:37:49;;;;;;;0.70;0.70;;;4.90;99.90;;;;;;5052952;27;20131;-90
2023/01/23 13:40:23;;;;;;;0.75;0.75;;;4.90;99.90;;;;;;5039216;27;20179;-89
2023/01/23 13:42:49;;;;;;;0.70;0.70;;;5.00;99.90;;;;;;5033982;27;20050;-89
2023/01/23 13:45:27;;;;;;;0.70;0.70;;;5.10;99.90;;;;;;5008926;27;20050;-90